createdAt,value
2017-08-14T00:01:35.427Z,40.80
2017-08-14T00:04:02.844Z,40.90
2017-08-14T00:06:30.280Z,41.10
2017-08-14T00:08:57.857Z,41.20
2017-08-14T00:11:25.264Z,41.20
2017-08-14T00:13:52.773Z,41.20
2017-08-14T00:16:20.188Z,41.10
2017-08-14T00:18:47.619Z,41.20
2017-08-14T00:21:15.036Z,41.40
2017-08-14T00:23:42.480Z,41.40
2017-08-14T00:26:09.908Z,41.30
2017-08-14T00:28:37.339Z,41.10
2017-08-14T00:31:04.751Z,41.20
2017-08-14T00:33:32.405Z,41.20
2017-08-14T00:35:59.862Z,41.40
2017-08-14T00:38:27.307Z,42.10
2017-08-14T00:40:54.729Z,42.30
2017-08-14T00:43:22.157Z,42.30
2017-08-14T00:45:49.567Z,42.50
2017-08-14T00:48:17.151Z,42.50
2017-08-14T00:50:44.605Z,42.50
2017-08-14T00:53:12.041Z,42.50
2017-08-14T00:55:39.459Z,42.50
2017-08-14T00:58:06.881Z,42.40
2017-08-14T01:00:34.322Z,42.40
2017-08-14T01:03:01.723Z,42.40
2017-08-14T01:05:29.148Z,42.40
2017-08-14T01:07:56.585Z,42.50
2017-08-14T01:10:24.016Z,42.70
2017-08-14T01:12:51.424Z,42.50
2017-08-14T01:15:18.845Z,42.40
2017-08-14T01:17:46.272Z,42.90
2017-08-14T01:20:13.692Z,43.00
2017-08-14T01:22:41.131Z,43.00
2017-08-14T01:25:08.591Z,43.30
2017-08-14T01:27:36.037Z,43.30
2017-08-14T01:30:03.492Z,43.30
2017-08-14T01:32:30.963Z,43.50
2017-08-14T01:34:58.391Z,42.60
2017-08-14T01:37:25.815Z,42.70
2017-08-14T01:39:53.993Z,42.20
2017-08-14T01:42:21.423Z,42.40
2017-08-14T01:44:48.854Z,42.40
2017-08-14T01:47:16.280Z,42.30
2017-08-14T01:49:43.700Z,42.50
2017-08-14T01:52:11.906Z,42.60
2017-08-14T01:54:39.328Z,42.70
2017-08-14T01:57:06.761Z,43.00
2017-08-14T01:59:34.291Z,43.10
2017-08-14T02:02:01.699Z,43.20
2017-08-14T02:04:29.142Z,43.20
2017-08-14T02:06:56.568Z,43.50
2017-08-14T02:09:23.992Z,43.80
2017-08-14T02:11:51.412Z,43.90
2017-08-14T02:14:18.858Z,44.10
2017-08-14T02:16:46.273Z,44.50
2017-08-14T02:19:13.720Z,44.50
2017-08-14T02:21:41.131Z,44.70
2017-08-14T02:24:08.556Z,44.90
2017-08-14T02:26:35.978Z,44.80
2017-08-14T02:29:03.400Z,44.80
2017-08-14T02:31:30.827Z,44.80
2017-08-14T02:33:58.244Z,44.80
2017-08-14T02:36:25.675Z,44.80
2017-08-14T02:38:53.902Z,44.70
2017-08-14T02:41:21.318Z,45.00
2017-08-14T02:43:48.744Z,44.80
2017-08-14T02:46:16.180Z,44.70
2017-08-14T02:48:43.596Z,44.80
2017-08-14T02:51:11.061Z,44.80
2017-08-14T02:53:38.668Z,44.90
2017-08-14T02:56:06.113Z,44.90
2017-08-14T02:58:33.552Z,45.00
2017-08-14T03:01:00.969Z,45.10
2017-08-14T03:03:28.402Z,45.20
2017-08-14T03:05:55.823Z,45.00
2017-08-14T03:08:23.296Z,44.90
2017-08-14T03:10:50.738Z,44.70
2017-08-14T03:13:18.175Z,44.40
2017-08-14T03:15:45.742Z,44.10
2017-08-14T03:18:13.168Z,44.20
2017-08-14T03:20:40.588Z,44.30
2017-08-14T03:23:08.028Z,43.50
2017-08-14T03:25:35.449Z,43.80
2017-08-14T03:28:02.898Z,43.90
2017-08-14T03:30:30.333Z,43.90
2017-08-14T03:32:58.523Z,44.30
2017-08-14T03:35:25.948Z,44.50
2017-08-14T03:37:53.363Z,44.40
2017-08-14T03:40:20.807Z,44.20
2017-08-14T03:42:48.226Z,44.30
2017-08-14T03:45:16.427Z,44.50
2017-08-14T03:47:43.840Z,44.60
2017-08-14T03:50:11.277Z,44.60
2017-08-14T03:52:38.723Z,44.50
2017-08-14T03:55:06.164Z,44.60
2017-08-14T03:57:33.583Z,44.80
2017-08-14T04:00:01.841Z,44.30
2017-08-14T04:02:29.253Z,44.60
2017-08-14T04:04:56.683Z,44.40
2017-08-14T04:07:24.108Z,44.30
2017-08-14T04:09:51.531Z,44.00
2017-08-14T04:12:19.095Z,44.00
2017-08-14T04:14:46.520Z,44.20
2017-08-14T04:17:13.944Z,43.70
2017-08-14T04:19:41.364Z,42.20
2017-08-14T04:22:08.810Z,42.80
2017-08-14T04:24:36.231Z,40.40
2017-08-14T04:27:03.657Z,43.00
2017-08-14T04:29:31.281Z,43.60
2017-08-14T04:31:58.716Z,43.90
2017-08-14T04:34:26.200Z,44.10
2017-08-14T04:36:53.634Z,44.00
2017-08-14T04:39:21.060Z,43.50
2017-08-14T04:41:48.512Z,43.80
2017-08-14T04:44:16.028Z,43.20
2017-08-14T04:46:43.481Z,43.90
2017-08-14T04:49:10.916Z,43.70
2017-08-14T04:57:24.615Z,42.90
2017-08-14T04:59:52.035Z,43.00
2017-08-14T05:02:19.452Z,42.30
2017-08-14T05:04:46.892Z,39.80
2017-08-14T05:07:14.327Z,42.70
2017-08-14T05:09:41.785Z,42.10
2017-08-14T05:12:09.210Z,42.00
2017-08-14T05:14:37.332Z,42.30
2017-08-14T05:17:04.872Z,42.40
2017-08-14T05:19:32.331Z,43.60
2017-08-14T05:21:59.754Z,44.10
2017-08-14T05:24:27.245Z,43.20
2017-08-14T05:26:54.664Z,39.50
2017-08-14T05:29:22.103Z,43.40
2017-08-14T05:31:49.534Z,39.00
2017-08-14T05:34:17.004Z,42.70
2017-08-14T05:36:44.425Z,41.00
2017-08-14T05:39:11.880Z,42.80
2017-08-14T05:41:39.313Z,43.10
2017-08-14T05:44:06.725Z,43.30
2017-08-14T05:46:34.920Z,42.50
2017-08-14T05:49:02.412Z,41.70
2017-08-14T05:51:29.844Z,43.50
2017-08-14T05:53:57.272Z,42.50
2017-08-14T05:56:24.704Z,43.30
2017-08-14T05:58:52.129Z,41.80
2017-08-14T06:01:20.638Z,43.60
2017-08-14T06:03:48.249Z,39.30
2017-08-14T06:06:15.688Z,44.20
2017-08-14T06:08:43.869Z,40.90
2017-08-14T06:11:11.313Z,40.90
2017-08-14T06:13:38.729Z,41.30
2017-08-14T06:16:06.165Z,42.60
2017-08-14T06:18:33.588Z,42.50
2017-08-14T06:21:01.785Z,42.70
2017-08-14T06:23:29.219Z,42.60
2017-08-14T06:25:56.644Z,43.80
2017-08-14T06:28:24.078Z,44.00
2017-08-14T06:30:51.500Z,43.30
2017-08-14T06:33:18.927Z,39.60
2017-08-14T06:35:47.124Z,42.80
2017-08-14T06:38:14.563Z,42.70
2017-08-14T06:40:41.980Z,42.80
2017-08-14T06:43:09.404Z,44.00
2017-08-14T06:45:36.824Z,41.40
2017-08-14T06:48:05.028Z,42.90
2017-08-14T06:50:32.452Z,42.90
2017-08-14T06:52:59.959Z,41.50
2017-08-14T06:55:27.560Z,40.90
2017-08-14T06:57:54.970Z,41.10
2017-08-14T07:00:22.397Z,42.40
2017-08-14T07:02:49.832Z,40.70
2017-08-14T07:05:17.279Z,38.90
2017-08-14T07:07:45.006Z,41.90
2017-08-14T07:10:12.425Z,40.20
2017-08-14T07:12:39.840Z,41.70
2017-08-14T07:15:07.284Z,42.30
2017-08-14T07:17:34.716Z,43.40
2017-08-14T07:20:02.150Z,38.50
2017-08-14T07:22:29.592Z,39.70
2017-08-14T07:24:57.788Z,42.10
2017-08-14T07:27:25.216Z,42.00
2017-08-14T07:29:52.751Z,43.10
2017-08-14T07:32:20.202Z,43.90
2017-08-14T07:34:47.636Z,43.40
2017-08-14T07:37:15.061Z,39.60
2017-08-14T07:39:42.505Z,40.20
2017-08-14T07:42:09.924Z,39.50
2017-08-14T07:44:37.364Z,39.60
2017-08-14T07:47:04.826Z,41.10
2017-08-14T07:49:32.252Z,42.20
2017-08-14T07:51:59.686Z,38.90
2017-08-14T07:54:27.889Z,40.30
2017-08-14T07:56:55.300Z,40.10
2017-08-14T07:59:22.749Z,40.40
2017-08-14T08:01:50.181Z,43.70
2017-08-14T08:04:17.600Z,42.60
2017-08-14T08:06:45.100Z,40.80
2017-08-14T08:09:12.658Z,43.30
2017-08-14T08:11:40.300Z,40.90
2017-08-14T08:14:07.751Z,44.70
2017-08-14T08:16:35.211Z,44.70
2017-08-14T08:19:02.653Z,45.80
2017-08-14T08:21:30.332Z,43.40
2017-08-14T08:23:57.757Z,44.60
2017-08-14T08:26:25.192Z,45.70
2017-08-14T08:28:52.623Z,46.30
2017-08-14T08:31:20.061Z,42.50
2017-08-14T08:33:47.518Z,44.60
2017-08-14T08:36:14.945Z,46.00
2017-08-14T08:38:42.369Z,47.10
2017-08-14T08:41:09.810Z,43.90
2017-08-14T08:43:37.227Z,43.10
2017-08-14T08:46:04.768Z,39.50
2017-08-14T08:48:32.198Z,42.60
2017-08-14T08:50:59.620Z,41.70
2017-08-14T08:53:27.047Z,43.20
2017-08-14T08:55:54.476Z,40.30
2017-08-14T08:58:21.916Z,43.50
2017-08-14T09:00:50.112Z,42.40
2017-08-14T09:03:17.549Z,42.50
2017-08-14T09:05:44.997Z,43.30
2017-08-14T09:08:12.412Z,44.40
2017-08-14T09:10:39.835Z,42.80
2017-08-14T09:13:07.271Z,43.50
2017-08-14T09:15:35.456Z,45.20
2017-08-14T09:18:02.886Z,45.00
2017-08-14T09:20:30.304Z,44.30
2017-08-14T09:22:57.740Z,42.40
2017-08-14T09:25:25.174Z,40.90
2017-08-14T09:27:53.373Z,44.30
2017-08-14T09:30:20.806Z,43.50
2017-08-14T09:32:48.246Z,44.40
2017-08-14T09:35:15.677Z,40.00
2017-08-14T09:37:43.108Z,40.90
2017-08-14T09:40:10.533Z,41.50
2017-08-14T09:42:37.965Z,38.90
2017-08-14T09:45:05.380Z,41.70
2017-08-14T09:47:32.866Z,39.10
2017-08-14T09:50:00.309Z,36.40
2017-08-14T09:52:27.744Z,39.40
2017-08-14T09:54:55.176Z,38.00
2017-08-14T09:57:22.772Z,37.90
2017-08-14T09:59:50.225Z,37.60
2017-08-14T10:02:17.652Z,40.40
2017-08-14T10:04:45.084Z,38.40
2017-08-14T10:07:13.284Z,38.50
2017-08-14T10:09:40.708Z,38.50
2017-08-14T10:12:08.127Z,36.20
2017-08-14T10:14:35.564Z,37.10
2017-08-14T10:17:02.989Z,37.00
2017-08-14T10:19:30.412Z,36.00
2017-08-14T10:21:57.849Z,36.90
2017-08-14T10:24:25.297Z,36.60
2017-08-14T10:26:52.723Z,36.00
2017-08-14T10:29:20.177Z,33.40
2017-08-14T10:31:47.677Z,31.00
2017-08-14T10:34:15.115Z,30.10
2017-08-14T10:36:42.577Z,32.90
2017-08-14T10:39:10.015Z,32.60
2017-08-14T10:41:37.436Z,34.90
2017-08-14T10:44:04.889Z,33.30
2017-08-14T10:46:32.305Z,33.50
2017-08-14T10:48:59.737Z,34.20
2017-08-14T10:51:27.169Z,30.70
2017-08-14T10:53:54.593Z,28.00
2017-08-14T10:56:22.128Z,26.80
2017-08-14T10:58:50.490Z,27.20
2017-08-14T11:01:17.913Z,28.10
2017-08-14T11:03:45.337Z,27.60
2017-08-14T11:06:12.778Z,26.00
2017-08-14T11:08:40.195Z,26.50
2017-08-14T11:11:07.624Z,29.30
2017-08-14T11:13:35.836Z,25.20
2017-08-14T11:16:03.243Z,25.20
2017-08-14T11:18:30.684Z,25.90
2017-08-14T11:20:58.120Z,24.00
2017-08-14T11:23:25.544Z,23.50
2017-08-14T11:25:53.015Z,23.10
2017-08-14T11:28:20.432Z,24.80
2017-08-14T11:30:48.660Z,25.80
2017-08-14T11:33:16.090Z,25.70
2017-08-14T11:35:43.520Z,26.70
2017-08-14T11:38:10.937Z,24.40
2017-08-14T11:40:38.370Z,23.10
2017-08-14T11:43:05.797Z,24.50
2017-08-14T11:45:33.993Z,20.10
2017-08-14T11:48:01.430Z,20.20
2017-08-14T11:50:28.858Z,20.00
2017-08-14T11:52:56.297Z,20.00
2017-08-14T11:55:23.758Z,20.00
2017-08-14T11:57:51.181Z,19.40
2017-08-14T12:00:18.612Z,21.60
2017-08-14T12:02:46.101Z,18.00
2017-08-14T12:05:13.528Z,18.90
2017-08-14T12:07:40.989Z,20.30
2017-08-14T12:10:08.417Z,17.90
2017-08-14T12:12:36.609Z,18.20
2017-08-14T12:15:04.049Z,17.80
2017-08-14T12:17:31.468Z,20.60
2017-08-14T12:19:58.892Z,17.60
2017-08-14T12:22:26.324Z,18.40
2017-08-14T12:24:54.524Z,16.30
2017-08-14T12:27:21.951Z,16.40
2017-08-14T12:29:49.384Z,14.70
2017-08-14T12:32:16.808Z,15.80
2017-08-14T12:34:44.335Z,17.00
2017-08-14T12:37:11.790Z,17.90
2017-08-14T12:39:39.220Z,17.80
2017-08-14T12:42:06.642Z,17.10
2017-08-14T12:44:34.199Z,16.70
2017-08-14T12:47:01.627Z,16.80
2017-08-14T12:49:29.070Z,17.00
2017-08-14T12:51:56.559Z,13.70
2017-08-14T12:54:24.321Z,15.10
2017-08-14T12:56:51.765Z,15.10
2017-08-14T12:59:19.188Z,11.60
2017-08-14T13:01:46.619Z,12.30
2017-08-14T13:04:14.033Z,8.90
2017-08-14T13:06:41.889Z,7.70
2017-08-14T13:09:09.316Z,7.30
2017-08-14T13:11:36.749Z,5.30
2017-08-14T13:14:04.165Z,5.20
2017-08-14T13:16:31.597Z,5.80
2017-08-14T13:18:59.077Z,5.30
2017-08-14T13:21:26.508Z,3.00
2017-08-14T13:23:53.920Z,5.20
2017-08-14T13:26:21.349Z,1.40
2017-08-14T13:28:48.777Z,3.10
2017-08-14T13:31:16.206Z,3.40
2017-08-14T13:33:43.628Z,3.90
2017-08-14T13:36:11.071Z,1.90
2017-08-14T13:38:38.480Z,3.40
2017-08-14T13:41:05.909Z,3.30
2017-08-14T13:43:33.338Z,2.40
2017-08-14T13:46:00.779Z,2.20
2017-08-14T13:48:28.192Z,4.50
2017-08-14T13:50:55.611Z,3.20
2017-08-14T13:53:23.040Z,3.50
2017-08-14T13:55:50.461Z,2.00
2017-08-14T13:58:17.889Z,3.50
2017-08-14T14:00:45.312Z,3.90
2017-08-14T14:03:12.737Z,3.60
2017-08-14T14:05:40.169Z,2.40
2017-08-14T14:08:07.609Z,3.70
2017-08-14T14:10:35.020Z,3.00
2017-08-14T14:13:02.509Z,2.70
2017-08-14T14:15:29.928Z,4.40
2017-08-14T14:17:58.113Z,6.00
2017-08-14T14:20:25.536Z,5.90
2017-08-14T14:22:52.970Z,5.80
2017-08-14T14:25:20.389Z,5.30
2017-08-14T14:27:47.812Z,6.30
2017-08-14T14:30:15.998Z,6.10
2017-08-14T14:32:43.797Z,6.40
2017-08-14T14:35:11.213Z,6.70
2017-08-14T14:37:38.647Z,3.40
2017-08-14T14:40:06.077Z,4.40
2017-08-14T14:42:33.503Z,4.10
2017-08-14T14:45:00.965Z,3.00
2017-08-14T14:47:28.375Z,3.70
2017-08-14T14:49:56.578Z,1.00
2017-08-14T14:54:57.764Z,1.60
2017-08-14T14:57:25.185Z,1.00
2017-08-14T14:59:52.617Z,1.60
2017-08-14T15:02:20.037Z,2.70
2017-08-14T15:04:47.469Z,1.00
2017-08-14T15:07:14.907Z,1.50
2017-08-14T15:09:42.345Z,1.00
2017-08-14T15:12:09.785Z,1.00
2017-08-14T15:14:37.209Z,1.00
2017-08-14T15:17:04.688Z,1.00
2017-08-14T15:19:32.120Z,1.00
2017-08-14T15:21:59.536Z,1.00
2017-08-14T15:24:28.062Z,1.00
2017-08-14T15:26:55.476Z,1.00
2017-08-14T15:29:22.900Z,1.10
2017-08-14T15:31:50.333Z,2.00
2017-08-14T15:34:17.765Z,3.00
2017-08-14T15:36:45.212Z,2.00
2017-08-14T15:39:12.637Z,1.20
2017-08-14T15:41:40.854Z,1.00
2017-08-14T15:44:08.287Z,1.00
2017-08-14T15:46:35.724Z,1.00
2017-08-14T15:49:03.176Z,1.00
2017-08-14T15:51:30.609Z,1.00
2017-08-14T15:53:58.053Z,1.00
2017-08-14T15:56:25.480Z,1.00
2017-08-14T15:58:52.901Z,1.00
2017-08-14T16:01:21.115Z,1.00
2017-08-14T16:03:48.532Z,1.00
2017-08-14T16:06:15.959Z,1.00
2017-08-14T16:08:43.508Z,1.00
2017-08-14T16:11:10.966Z,1.00
2017-08-14T16:13:38.392Z,1.00
2017-08-14T16:16:05.805Z,1.00
2017-08-14T16:18:33.220Z,1.00
2017-08-14T16:21:00.647Z,1.00
2017-08-14T16:23:28.107Z,1.00
2017-08-14T16:25:55.528Z,1.00
2017-08-14T16:28:22.964Z,1.00
2017-08-14T16:30:50.390Z,1.00
2017-08-14T16:33:17.833Z,1.00
2017-08-14T16:35:45.253Z,1.00
2017-08-14T16:38:12.676Z,1.00
2017-08-14T16:40:40.100Z,1.00
2017-08-14T16:43:07.524Z,1.90
2017-08-14T16:45:34.968Z,1.00
2017-08-14T16:48:02.396Z,1.00
2017-08-14T16:50:29.817Z,1.00
2017-08-14T16:52:57.269Z,1.00
2017-08-14T16:55:24.689Z,1.00
2017-08-14T16:57:52.125Z,1.00
2017-08-14T17:00:19.560Z,1.00
2017-08-14T17:02:46.985Z,1.00
2017-08-14T17:05:14.441Z,1.00
2017-08-14T17:07:42.151Z,1.00
2017-08-14T17:10:09.598Z,1.00
2017-08-14T17:12:37.021Z,1.70
2017-08-14T17:15:04.436Z,2.10
2017-08-14T17:17:31.859Z,1.00
2017-08-14T17:19:59.365Z,1.40
2017-08-14T17:22:26.845Z,1.10
2017-08-14T17:24:54.277Z,2.70
2017-08-14T17:27:21.693Z,3.00
2017-08-14T17:29:49.117Z,3.00
2017-08-14T17:32:16.572Z,3.00
2017-08-14T17:34:44.012Z,4.00
2017-08-14T17:37:11.440Z,4.50
2017-08-14T17:39:38.858Z,4.60
2017-08-14T17:42:06.272Z,4.80
2017-08-14T17:44:33.695Z,5.60
2017-08-14T17:47:01.113Z,5.70
2017-08-14T17:49:28.548Z,6.40
2017-08-14T17:51:55.980Z,6.40
2017-08-14T17:54:23.496Z,6.50
2017-08-14T17:56:50.928Z,6.80
2017-08-14T17:59:18.455Z,7.10
2017-08-14T18:01:46.049Z,7.70
2017-08-14T18:04:13.481Z,7.60
2017-08-14T18:06:41.675Z,7.80
2017-08-14T18:09:09.117Z,7.80
2017-08-14T18:11:36.558Z,8.20
2017-08-14T18:14:04.003Z,8.30
2017-08-14T18:16:31.529Z,8.30
2017-08-14T18:18:58.947Z,8.50
2017-08-14T18:21:26.391Z,9.20
2017-08-14T18:23:53.804Z,9.50
2017-08-14T18:26:21.233Z,10.00
2017-08-14T18:28:48.667Z,10.30
2017-08-14T18:31:16.134Z,9.80
2017-08-14T18:33:43.597Z,9.90
2017-08-14T18:36:11.036Z,10.20
2017-08-14T18:38:39.223Z,11.40
2017-08-14T18:41:06.890Z,11.30
2017-08-14T18:43:34.308Z,10.90
2017-08-14T18:46:02.508Z,12.20
2017-08-14T18:48:29.936Z,11.70
2017-08-14T18:50:57.369Z,12.60
2017-08-14T18:53:24.836Z,12.80
2017-08-14T18:55:57.348Z,13.10
2017-08-14T19:04:09.212Z,14.80
2017-08-14T19:17:30.954Z,16.30
2017-08-14T19:25:08.872Z,17.40
2017-08-14T19:30:22.553Z,17.60
2017-08-14T19:32:50.079Z,19.10
2017-08-14T19:35:17.536Z,19.00
2017-08-14T19:37:45.197Z,19.00
2017-08-14T19:40:12.712Z,19.60
2017-08-14T19:42:40.595Z,19.90
2017-08-14T19:47:55.745Z,20.00
2017-08-14T19:50:23.504Z,20.70
2017-08-14T19:52:51.823Z,20.70
2017-08-14T19:55:23.052Z,21.00
2017-08-14T19:57:50.669Z,21.50
2017-08-14T20:00:24.439Z,23.10
2017-08-14T20:02:51.939Z,23.50
2017-08-14T20:05:25.869Z,23.50
2017-08-14T20:13:45.489Z,25.20
2017-08-14T20:16:13.010Z,25.10
2017-08-14T20:18:40.743Z,25.50
2017-08-14T20:21:09.329Z,26.30
2017-08-14T21:02:18.800Z,27.10
2017-08-14T21:04:46.988Z,27.00
2017-08-14T21:07:14.466Z,26.90
2017-08-14T21:09:41.912Z,28.50
2017-08-14T21:12:09.347Z,29.10
2017-08-14T21:14:36.837Z,27.80
2017-08-14T21:17:04.283Z,28.00
2017-08-14T21:19:31.745Z,27.70
2017-08-14T21:21:59.174Z,28.90
2017-08-14T21:24:26.657Z,28.60
2017-08-14T21:26:54.115Z,27.70
2017-08-14T21:29:21.568Z,28.00
2017-08-14T21:31:49.033Z,28.50
2017-08-14T21:34:16.186Z,28.10
2017-08-14T21:36:43.335Z,28.40
2017-08-14T21:39:10.780Z,28.50
2017-08-14T21:41:38.233Z,27.90
2017-08-14T21:44:05.692Z,28.40
2017-08-14T21:46:33.140Z,28.30
2017-08-14T21:49:00.617Z,28.70
2017-08-14T21:51:28.240Z,28.30
2017-08-14T21:53:55.824Z,28.50
2017-08-14T21:56:23.284Z,29.00
2017-08-14T21:58:50.704Z,29.30
2017-08-14T22:01:18.124Z,28.80
2017-08-14T22:03:45.652Z,28.80
2017-08-14T22:06:13.077Z,28.40
2017-08-14T22:08:40.487Z,29.20
2017-08-14T22:11:07.927Z,29.00
2017-08-14T22:13:35.477Z,28.80
2017-08-14T22:16:02.928Z,28.70
2017-08-14T22:18:30.358Z,28.90
2017-08-14T22:20:57.779Z,29.60
2017-08-14T22:23:25.203Z,28.60
2017-08-14T22:25:52.756Z,28.70
2017-08-14T22:28:20.208Z,28.70
2017-08-14T22:30:47.646Z,28.70
2017-08-14T22:33:15.118Z,29.20
2017-08-14T22:35:42.585Z,29.60
2017-08-14T22:38:10.033Z,29.70
2017-08-14T22:40:37.496Z,29.70
2017-08-14T22:43:04.953Z,29.60
2017-08-14T22:45:32.408Z,30.20
2017-08-14T22:47:59.865Z,31.10
2017-08-14T22:50:27.317Z,32.40
2017-08-14T22:52:54.736Z,33.50
2017-08-14T22:55:22.281Z,33.20
2017-08-14T22:57:49.892Z,34.00
2017-08-14T23:00:17.360Z,33.00
2017-08-14T23:02:44.912Z,32.70
2017-08-14T23:05:12.972Z,33.10
2017-08-14T23:07:40.435Z,32.50
2017-08-14T23:10:07.840Z,33.20
2017-08-14T23:12:35.344Z,33.10
2017-08-14T23:15:02.800Z,33.20
2017-08-14T23:17:30.249Z,33.00
2017-08-14T23:19:57.717Z,33.00
2017-08-14T23:22:25.144Z,32.50
2017-08-14T23:24:52.624Z,33.00
2017-08-14T23:27:20.053Z,33.20
2017-08-14T23:29:47.537Z,33.70
2017-08-14T23:32:14.966Z,33.80
2017-08-14T23:34:42.445Z,34.10
2017-08-14T23:37:09.881Z,35.10
2017-08-14T23:39:37.360Z,35.00
2017-08-14T23:42:04.789Z,35.00
2017-08-14T23:44:32.221Z,36.00
2017-08-14T23:46:59.652Z,35.00
2017-08-14T23:49:27.184Z,35.00
2017-08-14T23:51:54.649Z,35.00
2017-08-14T23:54:22.077Z,35.10
2017-08-14T23:56:49.557Z,35.50
2017-08-14T23:59:16.968Z,35.30
